Wetterdaten: Woche 10.12.18 - 16.12.18 (KW50)
Datum Zeit Temp. A. Feuchte A. Luftdruck Regen Wind Richtung Taupunkt Windchill Windben
10.12.2018 00:00 8,3 C 74 % 1005,3 hPa 0,0 l/m 12,1 km/h N 3,8 C 4,5 C 37,8 km/h
10.12.2018 01:00 7,8 C 77 % 1006,3 hPa 0,3 l/m 10,5 km/h N 3,9 C 4,8 C 35,4 km/h
10.12.2018 02:00 7,6 C 75 % 1006,8 hPa 0,0 l/m 6,4 km/h N 3,5 C 7,6 C 25,8 km/h
10.12.2018 03:00 7,3 C 76 % 1007,0 hPa 0,5 l/m 11,3 km/h N 3,2 C 3,8 C 33,0 km/h
10.12.2018 04:00 6,5 C 79 % 1008,1 hPa 0,3 l/m 9,7 km/h N 3,0 C 3,9 C 27,4 km/h
10.12.2018 05:00 5,1 C 80 % 1009,0 hPa 0,8 l/m 8,1 km/h N 1,9 C 3,2 C 23,4 km/h
10.12.2018 06:00 5,3 C 77 % 1009,8 hPa 0,0 l/m 6,4 km/h N 1,5 C 4,6 C 24,1 km/h
10.12.2018 07:00 5,7 C 78 % 1010,3 hPa 0,0 l/m 11,3 km/h N 2,2 C 2,0 C 33,0 km/h
10.12.2018 08:00 5,3 C 77 % 1010,6 hPa 0,3 l/m 9,7 km/h N 1,5 C 2,6 C 29,0 km/h
10.12.2018 09:00 5,6 C 73 % 1011,4 hPa 0,0 l/m 10,5 km/h N 1,1 C 2,5 C 29,0 km/h
10.12.2018 10:00 6,0 C 70 % 1012,3 hPa 0,0 l/m 11,3 km/h N 1,0 C 2,4 C 33,8 km/h
10.12.2018 11:00 6,9 C 68 % 1012,5 hPa 0,0 l/m 10,5 km/h N 1,5 C 3,9 C 30,6 km/h
10.12.2018 12:00 6,7 C 69 % 1013,1 hPa 0,0 l/m 9,7 km/h N 1,3 C 4,2 C 31,4 km/h
10.12.2018 13:00 6,3 C 69 % 1013,5 hPa 0,0 l/m 7,9 km/h N 1,0 C 5,0 C 26,6 km/h
10.12.2018 14:00 6,2 C 69 % 1013,5 hPa 0,0 l/m 7,8 km/h N 1,0 C 5,1 C 24,5 km/h
10.12.2018 15:00 5,9 C 68 % 1013,8 hPa 0,0 l/m 7,9 km/h N 0,5 C 4,7 C 24,6 km/h
10.12.2018 16:00 5,4 C 68 % 1014,0 hPa 0,0 l/m 8,2 km/h N 0,0 C 3,9 C 26,1 km/h
10.12.2018 17:00 5,0 C 68 % 1014,5 hPa 0,0 l/m 6,0 km/h N -0,4 C 4,7 C 22,1 km/h
10.12.2018 18:00 4,4 C 71 % 1015,1 hPa 0,0 l/m 7,3 km/h N -0,4 C 3,4 C 24,1 km/h
10.12.2018 19:00 4,0 C 72 % 1015,3 hPa 0,0 l/m 8,2 km/h N -0,7 C 2,1 C 23,3 km/h
10.12.2018 20:00 3,6 C 73 % 1014,8 hPa 0,0 l/m 5,0 km/h N -0,8 C 3,6 C 20,1 km/h
10.12.2018 21:00 3,7 C 72 % 1014,6 hPa 0,0 l/m 6,2 km/h N -0,9 C 3,4 C 23,3 km/h
10.12.2018 22:00 4,0 C 70 % 1014,0 hPa 0,0 l/m 10,2 km/h N -1,0 C 0,9 C 29,8 km/h
10.12.2018 23:00 3,7 C 71 % 1013,8 hPa 0,0 l/m 9,4 km/h N -1,0 C 1,2 C 26,5 km/h
11.12.2018 00:00 3,7 C 70 % 1014,3 hPa 0,0 l/m 3,9 km/h N -1,3 C 3,7 C 16,1 km/h
11.12.2018 01:00 3,3 C 74 % 1014,6 hPa 0,0 l/m 1,1 km/h N -1,0 C 3,3 C 10,9 km/h
11.12.2018 02:00 3,2 C 72 % 1014,5 hPa 0,0 l/m 4,5 km/h N -1,3 C 3,0 C 24,1 km/h
11.12.2018 03:00 3,5 C 72 % 1014,5 hPa 0,0 l/m 6,6 km/h N -1,1 C 2,9 C 26,5 km/h
11.12.2018 04:00 3,6 C 72 % 1014,5 hPa 0,0 l/m 5,3 km/h N -1,0 C 3,5 C 20,9 km/h
11.12.2018 05:00 3,6 C 73 % 1014,0 hPa 0,0 l/m 5,9 km/h N -0,8 C 2,6 C 23,8 km/h
11.12.2018 06:00 3,5 C 75 % 1013,4 hPa 0,0 l/m 7,3 km/h N -0,5 C 2,6 C 29,0 km/h
11.12.2018 07:00 3,3 C 78 % 1013,6 hPa 0,0 l/m 9,0 km/h N -0,2 C 1,0 C 32,2 km/h
11.12.2018 08:00 3,2 C 79 % 1014,1 hPa 0,3 l/m 9,7 km/h N -0,1 C 0,3 C 30,6 km/h
11.12.2018 09:00 3,1 C 80 % 1014,5 hPa 0,3 l/m 8,7 km/h N 0,0 C 1,1 C 30,2 km/h
11.12.2018 10:00 3,3 C 80 % 1014,7 hPa 0,3 l/m 10,2 km/h N 0,2 C 0,1 C 35,4 km/h
11.12.2018 11:00 3,6 C 79 % 1014,7 hPa 0,3 l/m 9,4 km/h N 0,3 C 1,1 C 32,6 km/h
11.12.2018 12:00 3,9 C 78 % 1014,3 hPa 0,3 l/m 9,8 km/h N 0,4 C 1,2 C 37,0 km/h
11.12.2018 13:00 4,7 C 74 % 1013,9 hPa 0,0 l/m 9,4 km/h N 0,4 C 2,2 C 33,0 km/h
11.12.2018 14:00 4,3 C 75 % 1014,0 hPa 0,0 l/m 12,1 km/h N 0,2 C -0,1 C 40,6 km/h
11.12.2018 15:00 3,5 C 79 % 1014,8 hPa 0,5 l/m 10,9 km/h N 0,2 C -0,1 C 37,8 km/h
11.12.2018 16:00 3,5 C 78 % 1014,9 hPa 0,3 l/m 12,2 km/h N 0,0 C -1,0 C 39,0 km/h
11.12.2018 17:00 3,1 C 80 % 1015,1 hPa 0,3 l/m 8,9 km/h N -0,1 C 0,8 C 33,0 km/h
11.12.2018 18:00 3,0 C 81 % 1015,2 hPa 1,0 l/m 12,4 km/h N 0,0 C -1,8 C 40,2 km/h
11.12.2018 19:00 3,2 C 81 % 1015,3 hPa 0,3 l/m 11,9 km/h N 0,1 C -1,3 C 38,6 km/h
11.12.2018 20:00 3,1 C 80 % 1015,6 hPa 0,3 l/m 11,5 km/h N 0,0 C -1,1 C 39,4 km/h
11.12.2018 21:00 3,0 C 81 % 1015,5 hPa 0,5 l/m 12,0 km/h N 0,1 C -1,5 C 37,0 km/h
11.12.2018 22:00 2,7 C 82 % 1015,8 hPa 1,6 l/m 10,1 km/h N -0,2 C -0,6 C 34,2 km/h
11.12.2018 23:00 2,3 C 81 % 1015,9 hPa 1,6 l/m 9,9 km/h N -0,5 C -0,8 C 29,4 km/h
12.12.2018 00:00 2,5 C 82 % 1016,0 hPa 0,5 l/m 9,3 km/h N -0,3 C -0,1 C 28,2 km/h
12.12.2018 01:00 2,5 C 82 % 1016,2 hPa 1,6 l/m 8,9 km/h N -0,3 C 0,2 C 26,5 km/h
12.12.2018 02:00 2,4 C 82 % 1016,4 hPa 1,0 l/m 9,2 km/h N -0,4 C -0,1 C 30,6 km/h
12.12.2018 03:00 2,4 C 82 % 1016,6 hPa 0,8 l/m 8,5 km/h N -0,4 C 0,4 C 24,5 km/h
12.12.2018 04:00 2,3 C 82 % 1016,8 hPa 1,0 l/m 7,5 km/h N -0,5 C 1,1 C 22,9 km/h
12.12.2018 05:00 2,2 C 82 % 1016,9 hPa 0,5 l/m 5,3 km/h N -0,5 C 2,2 C 18,9 km/h
12.12.2018 06:00 2,2 C 82 % 1017,3 hPa 0,8 l/m 5,8 km/h N -0,7 C 1,9 C 20,5 km/h
12.12.2018 07:00 1,7 C 81 % 1018,0 hPa 1,3 l/m 0,8 km/h N -1,2 C 1,7 C 8,0 km/h
12.12.2018 08:00 1,2 C 81 % 1018,7 hPa 0,8 l/m 0,5 km/h N -1,7 C 1,2 C 5,2 km/h
12.12.2018 09:00 0,7 C 81 % 1019,4 hPa 0,3 l/m 0,0 km/h N -2,2 C 0,7 C 1,2 km/h
12.12.2018 10:00 0,9 C 81 % 1019,8 hPa 2,1 l/m 0,6 km/h N -2,0 C 0,9 C 4,8 km/h
12.12.2018 11:00 1,5 C 82 % 1019,9 hPa 1,3 l/m 1,7 km/h N -1,2 C 1,5 C 6,0 km/h
12.12.2018 12:00 2,2 C 82 % 1019,6 hPa 0,5 l/m 3,7 km/h N -0,6 C 2,2 C 9,7 km/h
12.12.2018 13:00 2,5 C 82 % 1019,6 hPa 0,0 l/m 3,7 km/h N -0,3 C 2,5 C 11,7 km/h
12.12.2018 14:00 1,5 C 81 % 1019,9 hPa 1,0 l/m 2,6 km/h N -1,4 C 1,5 C 9,3 km/h
12.12.2018 15:00 1,3 C 81 % 1020,2 hPa 0,5 l/m 1,5 km/h N -1,5 C 1,3 C 5,6 km/h
12.12.2018 16:00 1,2 C 81 % 1020,3 hPa 0,3 l/m 0,0 km/h N -1,7 C 1,2 C 0,0 km/h
12.12.2018 17:00 0,9 C 82 % 1020,5 hPa 0,0 l/m 0,2 km/h N -1,9 C 0,9 C 0,8 km/h
12.12.2018 18:00 1,0 C 82 % 1020,6 hPa 0,5 l/m 0,5 km/h N -1,8 C 1,0 C 2,0 km/h
12.12.2018 19:00 0,9 C 82 % 1020,9 hPa 0,0 l/m 0,0 km/h N -1,8 C 0,9 C 0,0 km/h
12.12.2018 20:00 0,8 C 82 % 1021,2 hPa 0,3 l/m 0,0 km/h N -1,9 C 0,8 C 0,0 km/h
12.12.2018 21:00 0,7 C 82 % 1021,3 hPa 0,3 l/m 0,0 km/h N -2,0 C 0,7 C 0,0 km/h
12.12.2018 22:00 0,8 C 82 % 1021,5 hPa 0,0 l/m 0,0 km/h N -1,9 C 0,8 C 0,0 km/h
12.12.2018 23:00 0,6 C 82 % 1021,7 hPa 0,0 l/m 0,1 km/h N -2,1 C 0,6 C 1,2 km/h
13.12.2018 00:00 0,4 C 82 % 1021,7 hPa 0,0 l/m 0,0 km/h N -2,3 C 0,4 C 0,8 km/h
13.12.2018 01:00 0,4 C 82 % 1021,6 hPa 0,0 l/m 0,1 km/h N -2,3 C 0,4 C 2,0 km/h
13.12.2018 02:00 0,2 C 82 % 1021,8 hPa 0,0 l/m 0,0 km/h N -2,5 C 0,2 C 0,0 km/h
13.12.2018 03:00 0,1 C 82 % 1021,7 hPa 0,0 l/m 0,0 km/h N -2,6 C 0,1 C 0,0 km/h
13.12.2018 04:00 -0,2 C 82 % 1021,3 hPa 0,0 l/m 0,0 km/h N -2,8 C -0,2 C 0,4 km/h
13.12.2018 05:00 -0,3 C 82 % 1021,2 hPa 0,0 l/m 0,1 km/h N -2,9 C -0,3 C 2,0 km/h
13.12.2018 06:00 -0,3 C 82 % 1021,2 hPa 0,0 l/m 0,0 km/h N -3,0 C -0,3 C 0,0 km/h
13.12.2018 07:00 -0,4 C 82 % 1021,4 hPa 0,0 l/m 0,0 km/h N -3,1 C -0,4 C 0,0 km/h
13.12.2018 08:00 -0,4 C 82 % 1021,6 hPa 0,0 l/m 0,0 km/h N -3,1 C -0,4 C 0,4 km/h
13.12.2018 09:00 -0,3 C 82 % 1021,5 hPa 0,0 l/m 0,0 km/h N -3,0 C -0,3 C 0,4 km/h
13.12.2018 10:00 -0,3 C 82 % 1021,6 hPa 0,0 l/m 0,0 km/h N -3,0 C -0,3 C 0,4 km/h
13.12.2018 11:00 -0,5 C 82 % 1021,1 hPa 0,0 l/m 0,1 km/h N -3,1 C -0,5 C 2,0 km/h
13.12.2018 12:00 -0,4 C 82 % 1020,7 hPa 0,3 l/m 0,0 km/h N -3,1 C -0,4 C 2,0 km/h
13.12.2018 13:00 -0,3 C 82 % 1020,6 hPa 0,0 l/m 0,0 km/h N -3,0 C -0,3 C 2,0 km/h
13.12.2018 14:00 -0,3 C 82 % 1020,6 hPa 0,0 l/m 0,1 km/h N -3,0 C -0,3 C 2,8 km/h
13.12.2018 15:00 -0,5 C 82 % 1020,8 hPa 0,0 l/m 0,0 km/h N -3,2 C -0,5 C 2,0 km/h
13.12.2018 16:00 -0,8 C 82 % 1020,8 hPa 0,0 l/m 0,0 km/h N -3,4 C -0,8 C 2,8 km/h
13.12.2018 17:00 -0,9 C 82 % 1020,6 hPa 0,0 l/m 0,0 km/h N -3,6 C -0,9 C 2,0 km/h
13.12.2018 18:00 -0,9 C 82 % 1020,8 hPa 0,0 l/m 0,0 km/h N -3,6 C -0,9 C 2,0 km/h
13.12.2018 19:00 -0,9 C 82 % 1020,8 hPa 0,0 l/m 0,1 km/h N -3,6 C -0,9 C 2,4 km/h
13.12.2018 20:00 -0,9 C 82 % 1021,1 hPa 0,3 l/m 0,0 km/h N -3,6 C -0,9 C 0,8 km/h
13.12.2018 21:00 -0,9 C 82 % 1021,4 hPa 0,0 l/m 0,0 km/h N -3,6 C -0,9 C 2,0 km/h
13.12.2018 22:00 -0,9 C 82 % 1021,5 hPa 0,0 l/m 0,1 km/h N -3,6 C -0,9 C 3,2 km/h
13.12.2018 23:00 -1,2 C 82 % 1021,4 hPa 0,0 l/m 0,1 km/h N -3,8 C -1,2 C 2,8 km/h
14.12.2018 00:00 -1,3 C 82 % 1021,4 hPa 0,0 l/m 0,1 km/h N -4,0 C -1,3 C 3,2 km/h
14.12.2018 01:00 -1,4 C 82 % 1021,2 hPa 0,0 l/m 0,1 km/h N -4,1 C -1,4 C 2,8 km/h
14.12.2018 02:00 -1,6 C 82 % 1021,4 hPa 0,0 l/m 0,1 km/h N -4,2 C -1,6 C 3,2 km/h
14.12.2018 03:00 -1,6 C 82 % 1021,4 hPa 0,0 l/m 0,0 km/h N -4,3 C -1,6 C 2,0 km/h
14.12.2018 04:00 -1,8 C 82 % 1021,3 hPa 0,0 l/m 0,1 km/h N -4,4 C -1,8 C 2,4 km/h
14.12.2018 05:00 -2,0 C 82 % 1021,6 hPa 0,0 l/m 0,1 km/h N -4,7 C -2,0 C 2,4 km/h
14.12.2018 06:00 -2,1 C 82 % 1021,9 hPa 0,0 l/m 0,1 km/h N -4,7 C -2,1 C 2,8 km/h
14.12.2018 07:00 -2,1 C 82 % 1022,3 hPa 0,0 l/m 0,1 km/h N -4,7 C -2,1 C 3,2 km/h
14.12.2018 08:00 -2,0 C 82 % 1022,7 hPa 0,0 l/m 0,0 km/h N -4,7 C -2,0 C 1,6 km/h
14.12.2018 09:00 -1,8 C 82 % 1023,2 hPa 0,0 l/m 0,0 km/h N -4,5 C -1,8 C 2,4 km/h
14.12.2018 10:00 -1,6 C 82 % 1023,4 hPa 0,0 l/m 0,0 km/h N -4,3 C -1,6 C 1,2 km/h
14.12.2018 11:00 -1,3 C 82 % 1023,2 hPa 0,0 l/m 0,0 km/h N -4,0 C -1,3 C 0,8 km/h
14.12.2018 12:00 -1,2 C 82 % 1023,0 hPa 0,0 l/m 0,0 km/h N -3,8 C -1,2 C 0,8 km/h
14.12.2018 13:00 -1,2 C 82 % 1022,8 hPa 0,0 l/m 0,2 km/h N -3,9 C -1,2 C 3,6 km/h
14.12.2018 14:00 -1,0 C 82 % 1022,6 hPa 0,0 l/m 0,0 km/h N -3,6 C -1,0 C 1,2 km/h
14.12.2018 15:00 -0,9 C 82 % 1022,9 hPa 0,0 l/m 0,0 km/h N -3,5 C -0,9 C 1,6 km/h
14.12.2018 16:00 -1,1 C 82 % 1023,2 hPa 0,0 l/m 0,1 km/h N -3,7 C -1,1 C 1,6 km/h
14.12.2018 17:00 -1,1 C 82 % 1023,3 hPa 0,0 l/m 0,3 km/h N -3,8 C -1,1 C 2,4 km/h
14.12.2018 18:00 -1,3 C 82 % 1023,4 hPa 0,0 l/m 1,0 km/h N -3,9 C -1,3 C 4,8 km/h
14.12.2018 19:00 -1,2 C 82 % 1023,5 hPa 0,0 l/m 0,3 km/h N -3,9 C -1,2 C 3,6 km/h
14.12.2018 20:00 -1,3 C 82 % 1023,7 hPa 0,0 l/m 0,6 km/h N -4,0 C -1,3 C 4,0 km/h
14.12.2018 21:00 -1,4 C 82 % 1023,7 hPa 0,0 l/m 0,7 km/h N -4,1 C -1,4 C 4,4 km/h
14.12.2018 22:00 -1,4 C 82 % 1023,6 hPa 0,0 l/m 1,0 km/h N -4,1 C -1,4 C 5,2 km/h
14.12.2018 23:00 -1,4 C 82 % 1023,5 hPa 0,0 l/m 1,1 km/h N -4,1 C -1,4 C 5,2 km/h
15.12.2018 00:00 -1,5 C 82 % 1023,4 hPa 0,0 l/m 1,5 km/h N -4,2 C -1,5 C 5,6 km/h
15.12.2018 01:00 -1,6 C 82 % 1023,3 hPa 0,0 l/m 1,0 km/h N -4,3 C -1,6 C 4,8 km/h
15.12.2018 02:00 -1,6 C 82 % 1023,4 hPa 0,0 l/m 0,9 km/h N -4,3 C -1,6 C 4,4 km/h
15.12.2018 03:00 -1,6 C 82 % 1023,3 hPa 0,0 l/m 1,8 km/h N -4,3 C -1,6 C 5,6 km/h
15.12.2018 04:00 -1,6 C 82 % 1023,2 hPa 0,0 l/m 2,2 km/h N -4,3 C -1,6 C 7,6 km/h
15.12.2018 05:00 -1,7 C 82 % 1023,1 hPa 0,0 l/m 2,2 km/h N -4,4 C -1,7 C 7,2 km/h
15.12.2018 06:00 -1,7 C 82 % 1023,2 hPa 0,0 l/m 2,6 km/h N -4,4 C -1,7 C 7,6 km/h
15.12.2018 07:00 -1,7 C 82 % 1023,3 hPa 0,0 l/m 3,3 km/h N -4,4 C -1,7 C 9,7 km/h
15.12.2018 08:00 -1,6 C 82 % 1023,4 hPa 0,0 l/m 4,3 km/h N -4,3 C -1,6 C 10,5 km/h
15.12.2018 09:00 -1,3 C 82 % 1023,5 hPa 0,0 l/m 4,9 km/h N -4,0 C -1,3 C 14,5 km/h
15.12.2018 10:00 -0,9 C 82 % 1023,5 hPa 0,0 l/m 5,5 km/h N -3,6 C -0,9 C 14,9 km/h
15.12.2018 11:00 -0,7 C 82 % 1022,9 hPa 0,0 l/m 6,8 km/h N -3,4 C -1,3 C 19,3 km/h
15.12.2018 12:00 -0,6 C 82 % 1022,5 hPa 0,0 l/m 7,5 km/h N -3,3 C -1,7 C 19,3 km/h
15.12.2018 13:00 -0,7 C 82 % 1022,5 hPa 0,0 l/m 6,7 km/h N -3,4 C -1,0 C 16,9 km/h
15.12.2018 14:00 -0,7 C 82 % 1022,4 hPa 0,0 l/m 5,5 km/h N -3,4 C -0,8 C 16,5 km/h
15.12.2018 15:00 -0,9 C 82 % 1022,5 hPa 0,0 l/m 6,2 km/h N -3,6 C -1,1 C 18,1 km/h
15.12.2018 16:00 -1,0 C 82 % 1022,6 hPa 0,0 l/m 7,8 km/h N -3,7 C -2,5 C 20,1 km/h
15.12.2018 17:00 -1,0 C 82 % 1022,6 hPa 0,0 l/m 6,4 km/h N -3,6 C -1,2 C 18,5 km/h
15.12.2018 18:00 -0,8 C 82 % 1022,7 hPa 0,0 l/m 6,2 km/h N -3,5 C -1,1 C 17,7 km/h
15.12.2018 19:00 -1,0 C 82 % 1022,7 hPa 0,0 l/m 5,3 km/h N -3,6 C -1,0 C 14,9 km/h
15.12.2018 20:00 -1,0 C 83 % 1022,6 hPa 0,0 l/m 6,3 km/h N -3,5 C -1,3 C 18,5 km/h
15.12.2018 21:00 -1,0 C 82 % 1022,1 hPa 0,0 l/m 5,4 km/h N -3,6 C -1,0 C 15,7 km/h
15.12.2018 22:00 -1,0 C 82 % 1021,8 hPa 0,0 l/m 3,8 km/h N -3,7 C -1,0 C 10,5 km/h
15.12.2018 23:00 -1,2 C 82 % 1021,3 hPa 0,0 l/m 4,3 km/h N -3,9 C -1,2 C 11,7 km/h
16.12.2018 00:00 -1,3 C 82 % 1020,9 hPa 0,0 l/m 2,9 km/h N -4,0 C -1,3 C 9,3 km/h
16.12.2018 01:00 -1,4 C 82 % 1020,8 hPa 0,0 l/m 3,0 km/h N -4,1 C -1,4 C 8,4 km/h
16.12.2018 02:00 -1,6 C 82 % 1020,7 hPa 0,0 l/m 1,5 km/h N -4,3 C -1,6 C 6,4 km/h
16.12.2018 03:00 -1,8 C 81 % 1020,1 hPa 0,0 l/m 0,2 km/h N -4,6 C -1,8 C 4,0 km/h
16.12.2018 04:00 -1,9 C 80 % 1019,8 hPa 0,0 l/m 0,3 km/h N -4,8 C -1,9 C 3,6 km/h
16.12.2018 05:00 -2,0 C 80 % 1019,8 hPa 0,0 l/m 0,0 km/h N -5,0 C -2,0 C 1,2 km/h
16.12.2018 06:00 -2,1 C 80 % 1019,5 hPa 0,0 l/m 0,0 km/h N -5,1 C -2,1 C 0,4 km/h
16.12.2018 07:00 -2,3 C 81 % 1019,4 hPa 0,0 l/m 0,0 km/h N -5,2 C -2,3 C 0,4 km/h
16.12.2018 08:00 -2,3 C 82 % 1019,2 hPa 0,0 l/m 0,0 km/h N -4,9 C -2,3 C 0,8 km/h
16.12.2018 09:00 -1,6 C 82 % 1019,3 hPa 0,0 l/m 0,0 km/h N -4,3 C -1,6 C 0,4 km/h
16.12.2018 10:00 -1,2 C 80 % 1019,1 hPa 0,0 l/m 0,1 km/h N -4,2 C -1,2 C 3,2 km/h
16.12.2018 11:00 -0,7 C 78 % 1018,1 hPa 0,0 l/m 0,1 km/h N -4,1 C -0,7 C 2,8 km/h
16.12.2018 12:00 0,0 C 74 % 1017,7 hPa 0,0 l/m 0,5 km/h N -4,1 C 0,0 C 5,2 km/h
16.12.2018 13:00 0,5 C 74 % 1017,2 hPa 0,3 l/m 0,2 km/h N -3,6 C 0,5 C 3,6 km/h
16.12.2018 14:00 0,5 C 75 % 1016,9 hPa 0,0 l/m 0,2 km/h N -3,4 C 0,5 C 3,6 km/h
16.12.2018 15:00 -0,0 C 77 % 1017,3 hPa 0,0 l/m 0,1 km/h N -3,6 C -0,0 C 2,0 km/h
16.12.2018 16:00 -0,9 C 79 % 1017,6 hPa 0,0 l/m 0,0 km/h N -4,2 C -0,9 C 1,6 km/h
16.12.2018 17:00 -1,3 C 81 % 1018,1 hPa 0,0 l/m 0,0 km/h N -4,2 C -1,3 C 0,4 km/h
16.12.2018 18:00 -1,4 C 81 % 1018,2 hPa 0,0 l/m 0,0 km/h N -4,2 C -1,4 C 0,4 km/h
16.12.2018 19:00 -1,3 C 82 % 1018,6 hPa 0,0 l/m 0,0 km/h N -4,0 C -1,3 C 1,2 km/h
16.12.2018 20:00 -1,2 C 82 % 1018,9 hPa 0,0 l/m 0,0 km/h N -3,9 C -1,2 C 0,4 km/h
16.12.2018 21:00 -1,2 C 83 % 1019,0 hPa 0,0 l/m 0,1 km/h N -3,8 C -1,2 C 2,8 km/h
16.12.2018 22:00 -1,2 C 83 % 1019,1 hPa 0,0 l/m 0,1 km/h N -3,7 C -1,2 C 3,6 km/h
16.12.2018 23:00 -1,3 C 82 % 1019,2 hPa 0,0 l/m 0,1 km/h N -4,0 C -1,3 C 2,8 km/h
Min-Datum _ 16.12.18 10.12.18 10.12.18 - 12.12.18 - 16.12.18 15.12.18 12.12.18
_ Min-Zeit 07:45 13:15 00:00 - 08:45 - 07:00 16:15 09:00
Minimum _ -2,4 C 67 % 1005,1 hPa - 0,0 km/h - -5,3 C -3,4 C 0,0 km/h
Max-Datum _ 10.12.18 15.12.18 14.12.18 12.12.18 11.12.18 - 10.12.18 10.12.18 11.12.18
_ Max-Zeit 00:00 19:45 20:15 10:30 20:00 - 00:30 02:00 14:45
Maximum _ 8,5 C 83 % 1023,8 hPa 2,1 l/m 13,9 km/h
N
- 3,9 C 7,6 C 48,3 km/h
N
Durchschnitt _ 0,9 C 80 % 1018,7 hPa #25,7 l/m 3,7 km/h N -2,2 C 0,2 C 12,7 km/h